Time;durP1;ratioP1;P1;durP2;ratioP2;P2;SDS_P1;SDS_P2;PMS_P1;PMS_P2;Temp;Humidity;BMP_temperature;BMP_pressure;BME280_temperature;BME280_humidity;BME280_pressure;Samples;Min_cycle;Max_cycle;Signal;HPM_P1;HPM_P2
2022/12/24 00:02:18;;;;;;;18.55;3.60;;;12.50;99.90;;;;;;5056976;28;20147;-68
2022/12/24 00:04:44;;;;;;;24.88;4.50;;;12.50;99.90;;;;;;5056926;28;20036;-68
2022/12/24 00:07:10;;;;;;;19.70;3.92;;;12.50;99.90;;;;;;5057168;28;20025;-68
2022/12/24 00:09:35;;;;;;;17.67;3.20;;;12.50;99.90;;;;;;5039083;28;20112;-69
2022/12/24 00:12:01;;;;;;;17.40;3.15;;;12.50;99.90;;;;;;5057106;28;20524;-68
2022/12/24 00:14:27;;;;;;;18.92;3.75;;;12.50;99.90;;;;;;5057016;28;20108;-68
2022/12/24 00:16:52;;;;;;;16.05;3.15;;;12.50;99.90;;;;;;5038979;28;20075;-68
2022/12/24 00:19:18;;;;;;;20.38;3.60;;;12.40;99.90;;;;;;5038963;28;20075;-68
2022/12/24 00:21:44;;;;;;;16.00;3.58;;;12.50;99.90;;;;;;5056983;28;20044;-68
2022/12/24 00:24:09;;;;;;;21.20;3.88;;;12.50;99.90;;;;;;5057169;28;20078;-68
2022/12/24 00:26:35;;;;;;;20.80;3.85;;;12.40;99.90;;;;;;5056933;28;20444;-68
2022/12/24 00:29:01;;;;;;;19.83;4.15;;;12.40;99.90;;;;;;5022532;28;20032;-68
2022/12/24 00:31:27;;;;;;;22.45;4.72;;;12.40;99.90;;;;;;5056857;28;20212;-68
2022/12/24 00:33:53;;;;;;;20.55;3.45;;;12.40;99.90;;;;;;5056523;28;20025;-68
2022/12/24 00:36:19;;;;;;;15.55;3.38;;;12.40;99.90;;;;;;5056783;28;20025;-68
2022/12/24 00:38:45;;;;;;;15.43;3.13;;;12.40;99.90;;;;;;5043670;28;20075;-68
2022/12/24 00:41:25;;;;;;;22.35;3.88;;;12.40;99.90;;;;;;5038845;28;20043;-68
2022/12/24 00:43:56;;;;;;;22.83;4.57;;;12.40;99.90;;;;;;5057712;28;20037;-68
2022/12/24 00:46:23;;;;;;;19.67;3.80;;;12.40;99.90;;;;;;5060228;28;20029;-68
2022/12/24 00:48:49;;;;;;;18.65;3.42;;;12.40;99.90;;;;;;5060329;28;20039;-68
2022/12/24 00:51:15;;;;;;;21.23;4.55;;;12.40;99.90;;;;;;5042467;28;20044;-68
2022/12/24 00:53:41;;;;;;;22.17;3.80;;;12.40;99.90;;;;;;5060472;28;20028;-68
2022/12/24 00:56:07;;;;;;;19.80;3.50;;;12.30;99.90;;;;;;5060264;28;20151;-68
2022/12/24 00:58:33;;;;;;;26.08;4.28;;;12.40;99.90;;;;;;5060432;28;20033;-68
2022/12/24 01:00:58;;;;;;;20.60;4.88;;;12.40;99.90;;;;;;5042289;28;20017;-68
2022/12/24 01:03:34;;;;;;;25.48;4.15;;;12.30;99.90;;;;;;5060071;28;20392;-68
2022/12/24 01:06:02;;;;;;;13.32;2.97;;;12.30;99.90;;;;;;5042175;28;20029;-68
2022/12/24 01:08:28;;;;;;;19.00;3.58;;;12.30;99.90;;;;;;5042092;28;20036;-68
2022/12/24 01:10:54;;;;;;;22.15;4.10;;;12.30;99.90;;;;;;5059810;28;20425;-68
2022/12/24 01:13:19;;;;;;;15.38;3.20;;;12.30;99.90;;;;;;5060080;28;20464;-68
2022/12/24 01:15:45;;;;;;;17.27;3.05;;;12.30;99.90;;;;;;5059893;28;20153;-68
2022/12/24 01:18:11;;;;;;;13.63;3.05;;;12.30;99.90;;;;;;5060059;28;20102;-68
2022/12/24 01:20:36;;;;;;;16.88;3.45;;;12.30;99.90;;;;;;5059548;28;20469;-68
2022/12/24 01:23:02;;;;;;;18.83;3.60;;;12.40;99.90;;;;;;5059895;28;20033;-68
2022/12/24 01:25:27;;;;;;;20.58;3.95;;;12.30;99.90;;;;;;5059824;28;20017;-68
2022/12/24 01:27:53;;;;;;;18.25;4.10;;;12.40;99.90;;;;;;5059987;28;20385;-68
2022/12/24 01:30:19;;;;;;;16.40;3.28;;;12.30;99.90;;;;;;5059584;28;20512;-68
2022/12/24 01:32:44;;;;;;;16.20;2.80;;;12.40;99.90;;;;;;5059739;28;20100;-68
2022/12/24 01:35:11;;;;;;;18.50;3.25;;;12.40;99.90;;;;;;5041380;28;20111;-68
2022/12/24 01:37:37;;;;;;;17.00;3.65;;;12.40;99.90;;;;;;5059558;28;20029;-68
2022/12/24 01:45:47;;;;;;;18.88;3.15;;;12.40;99.90;;;;;;5059684;28;20024;-68
2022/12/24 01:48:32;;;;;;;15.02;3.90;;;12.40;99.90;;;;;;5059175;28;20061;-68
2022/12/24 01:51:21;;;;;;;18.58;3.35;;;12.40;99.90;;;;;;5059396;28;20043;-68
2022/12/24 01:54:02;;;;;;;11.93;2.40;;;12.40;99.90;;;;;;5059125;28;20043;-68
2022/12/24 01:56:29;;;;;;;17.25;3.15;;;12.40;99.90;;;;;;5041168;28;20017;-68
2022/12/24 01:58:59;;;;;;;12.45;2.60;;;12.40;99.90;;;;;;5059190;28;20397;-68
2022/12/24 02:01:25;;;;;;;11.63;2.72;;;12.40;99.90;;;;;;5058847;28;20363;-68
2022/12/24 02:03:51;;;;;;;20.05;3.47;;;12.40;99.90;;;;;;5059077;28;20039;-68
2022/12/24 02:06:18;;;;;;;16.27;3.38;;;12.40;99.90;;;;;;5059066;28;20039;-69
2022/12/24 02:08:44;;;;;;;17.73;3.13;;;12.40;99.90;;;;;;5058884;28;20029;-68
2022/12/24 02:11:16;;;;;;;15.07;3.25;;;12.50;99.90;;;;;;5058741;28;20052;-68
2022/12/24 02:13:47;;;;;;;18.57;3.57;;;12.50;99.90;;;;;;5058778;28;20124;-68
2022/12/24 02:16:24;;;;;;;16.63;2.85;;;12.50;99.90;;;;;;5059194;28;20032;-68
2022/12/24 02:19:31;;;;;;;14.82;2.75;;;12.50;99.90;;;;;;5058755;28;20028;-68
2022/12/24 02:22:06;;;;;;;16.67;2.83;;;12.50;99.90;;;;;;5040049;28;20545;-68
2022/12/24 02:24:56;;;;;;;16.95;2.90;;;12.50;99.90;;;;;;5058757;28;20029;-68
2022/12/24 02:27:54;;;;;;;20.77;3.22;;;12.50;99.90;;;;;;5058695;28;20083;-68
2022/12/24 02:30:34;;;;;;;16.83;2.72;;;12.60;99.90;;;;;;5058471;28;20024;-68
2022/12/24 02:33:37;;;;;;;15.85;2.92;;;12.60;99.90;;;;;;5058332;28;20099;-68
2022/12/24 02:36:12;;;;;;;18.73;2.95;;;12.60;99.90;;;;;;5006462;28;20177;-68
2022/12/24 02:38:51;;;;;;;16.00;2.75;;;12.60;99.90;;;;;;5045562;28;20500;-68
2022/12/24 02:41:22;;;;;;;18.88;3.47;;;12.70;99.90;;;;;;5040105;28;20098;-68
2022/12/24 02:43:50;;;;;;;14.32;3.20;;;12.70;99.90;;;;;;5058391;28;20032;-68
2022/12/24 02:46:28;;;;;;;13.75;2.47;;;12.70;99.90;;;;;;5058050;28;20051;-68
2022/12/24 02:48:55;;;;;;;16.90;3.65;;;12.70;99.90;;;;;;5040073;28;20021;-68
2022/12/24 02:51:23;;;;;;;17.40;3.03;;;12.70;99.90;;;;;;5058213;28;20036;-68
2022/12/24 02:53:49;;;;;;;15.73;3.05;;;12.70;99.90;;;;;;5058023;28;20025;-68
2022/12/24 02:56:18;;;;;;;18.05;2.83;;;12.70;99.90;;;;;;5057984;28;20082;-68
2022/12/24 02:58:47;;;;;;;12.18;2.58;;;12.70;99.90;;;;;;5040085;28;20508;-68
2022/12/24 03:01:29;;;;;;;12.13;2.53;;;12.70;99.90;;;;;;5057912;28;20451;-68
2022/12/24 03:04:07;;;;;;;15.47;2.83;;;12.70;99.90;;;;;;5057991;28;20025;-68
2022/12/24 03:06:49;;;;;;;14.93;2.63;;;12.70;99.90;;;;;;5057527;28;20055;-68
2022/12/24 03:09:25;;;;;;;20.77;2.90;;;12.70;99.90;;;;;;5039817;28;20032;-69
2022/12/24 03:12:02;;;;;;;16.58;3.38;;;12.70;99.90;;;;;;5057415;28;20516;-68
2022/12/24 03:14:29;;;;;;;14.75;2.50;;;12.70;99.90;;;;;;5057781;28;20032;-68
2022/12/24 03:16:57;;;;;;;13.68;2.20;;;12.60;99.90;;;;;;5057484;28;20032;-68
2022/12/24 03:19:25;;;;;;;15.32;2.20;;;12.70;99.90;;;;;;5057636;28;20048;-68
2022/12/24 03:21:53;;;;;;;13.05;2.42;;;12.60;99.90;;;;;;5057571;28;20021;-68
2022/12/24 03:24:19;;;;;;;12.60;2.42;;;12.60;99.90;;;;;;5057636;28;20033;-68
2022/12/24 03:26:45;;;;;;;14.85;2.28;;;12.60;99.90;;;;;;5057468;28;20028;-68
2022/12/24 03:29:12;;;;;;;6.88;1.55;;;12.60;99.90;;;;;;5057778;28;20033;-68
2022/12/24 03:31:46;;;;;;;11.68;2.08;;;12.60;99.90;;;;;;5057194;28;20021;-68
2022/12/24 03:34:13;;;;;;;6.43;1.58;;;12.60;99.90;;;;;;5057341;28;20021;-68
2022/12/24 03:36:39;;;;;;;8.30;1.67;;;12.60;99.90;;;;;;5057211;28;20017;-68
2022/12/24 03:39:05;;;;;;;8.90;1.45;;;12.60;99.90;;;;;;5039422;28;20032;-68
2022/12/24 03:41:31;;;;;;;8.43;1.20;;;12.60;99.90;;;;;;5057317;28;20416;-68
2022/12/24 03:43:56;;;;;;;8.70;1.45;;;12.50;99.90;;;;;;5057449;28;20025;-68
2022/12/24 03:46:22;;;;;;;8.00;1.70;;;12.60;99.90;;;;;;5057138;28;20044;-68
2022/12/24 03:48:48;;;;;;;7.28;1.80;;;12.50;99.90;;;;;;5039230;28;20112;-68
2022/12/24 03:51:17;;;;;;;10.23;1.55;;;12.50;99.90;;;;;;5057186;28;20366;-68
2022/12/24 03:53:43;;;;;;;7.00;1.75;;;12.50;99.90;;;;;;5039286;28;20123;-68
2022/12/24 03:56:09;;;;;;;7.63;1.35;;;12.50;99.90;;;;;;5039213;28;20049;-67
2022/12/24 03:58:34;;;;;;;6.82;1.35;;;12.50;99.90;;;;;;5057203;28;20040;-68
2022/12/24 04:01:00;;;;;;;6.03;1.40;;;12.40;99.90;;;;;;5039090;28;20017;-68
2022/12/24 04:03:26;;;;;;;5.40;1.27;;;12.40;99.90;;;;;;5056778;28;20029;-68
2022/12/24 04:06:24;;;;;;;7.03;1.63;;;12.30;99.90;;;;;;5057046;28;20524;-68
2022/12/24 04:08:49;;;;;;;8.20;1.40;;;12.30;99.90;;;;;;5013042;28;20033;-68
2022/12/24 04:11:15;;;;;;;4.97;0.90;;;12.30;99.90;;;;;;5056952;28;20743;-68
2022/12/24 04:13:41;;;;;;;7.20;1.60;;;12.30;99.90;;;;;;5056902;28;20037;-68
2022/12/24 04:16:10;;;;;;;6.10;1.30;;;12.20;99.90;;;;;;5057178;28;20040;-68
2022/12/24 04:18:36;;;;;;;4.78;1.38;;;12.30;99.90;;;;;;5039186;28;20025;-68
2022/12/24 04:21:02;;;;;;;6.57;1.35;;;12.30;99.90;;;;;;5060997;28;20025;-68
2022/12/24 04:23:30;;;;;;;4.13;1.50;;;12.30;99.90;;;;;;5060849;28;20060;-68
2022/12/24 04:25:58;;;;;;;7.30;1.30;;;12.30;99.90;;;;;;5043002;28;20032;-68
2022/12/24 04:28:24;;;;;;;4.18;1.42;;;12.30;99.90;;;;;;5060821;28;20108;-68
2022/12/24 04:30:49;;;;;;;6.55;1.20;;;12.30;99.90;;;;;;5060968;28;20061;-68
2022/12/24 04:33:15;;;;;;;7.03;1.23;;;12.30;99.90;;;;;;5042375;28;20025;-68
2022/12/24 04:35:41;;;;;;;9.52;1.85;;;12.30;99.90;;;;;;5060771;28;20036;-68
2022/12/24 04:38:08;;;;;;;10.95;2.15;;;12.30;99.90;;;;;;5042737;28;20481;-68
2022/12/24 04:40:34;;;;;;;10.23;2.03;;;12.40;99.90;;;;;;5060759;28;20029;-68
2022/12/24 04:43:00;;;;;;;8.48;1.98;;;12.40;99.90;;;;;;5042579;28;20021;-68
2022/12/24 04:45:26;;;;;;;12.00;1.75;;;12.40;99.90;;;;;;5060597;28;20557;-68
2022/12/24 04:47:51;;;;;;;11.80;2.08;;;12.40;99.90;;;;;;5060453;28;20057;-68
2022/12/24 04:50:17;;;;;;;13.75;2.25;;;12.50;99.90;;;;;;5060370;28;20029;-68
2022/12/24 04:52:43;;;;;;;12.13;2.08;;;12.50;99.90;;;;;;5060459;28;20028;-68
2022/12/24 04:55:08;;;;;;;9.05;2.17;;;12.40;99.90;;;;;;5060520;28;20029;-68
2022/12/24 04:57:36;;;;;;;8.45;1.80;;;12.40;99.90;;;;;;5060281;28;20017;-68
2022/12/24 05:00:04;;;;;;;8.10;1.80;;;12.40;99.90;;;;;;5060363;28;20104;-68
2022/12/24 05:02:30;;;;;;;9.65;1.80;;;12.40;99.90;;;;;;5060093;28;20100;-68
2022/12/24 05:04:55;;;;;;;9.48;1.90;;;12.50;99.90;;;;;;5060178;28;20053;-68
2022/12/24 05:07:21;;;;;;;10.95;2.17;;;12.50;99.90;;;;;;5060027;28;20037;-68
2022/12/24 05:09:47;;;;;;;14.10;2.55;;;12.50;99.90;;;;;;5060074;28;20029;-68
2022/12/24 05:12:13;;;;;;;12.32;2.35;;;12.50;99.90;;;;;;5060225;28;20041;-67
2022/12/24 05:14:39;;;;;;;10.77;1.80;;;12.50;99.90;;;;;;5059936;28;20469;-68
2022/12/24 05:17:05;;;;;;;15.10;2.15;;;12.50;99.90;;;;;;5059762;28;20017;-68
2022/12/24 05:19:31;;;;;;;12.82;2.25;;;12.40;99.90;;;;;;5059911;28;20036;-68
2022/12/24 05:27:24;;;;;;;8.35;1.63;;;12.50;99.90;;;;;;5059983;28;20048;-68
2022/12/24 05:29:50;;;;;;;12.90;1.83;;;12.50;99.90;;;;;;5059269;28;20021;-68
2022/12/24 05:32:16;;;;;;;10.45;1.92;;;12.50;99.90;;;;;;5041668;28;20436;-68
2022/12/24 05:34:41;;;;;;;9.63;1.98;;;12.50;99.90;;;;;;5059318;28;20025;-68
2022/12/24 05:37:07;;;;;;;9.75;1.42;;;12.50;99.90;;;;;;5059621;28;20021;-68
2022/12/24 05:39:32;;;;;;;10.27;1.80;;;12.50;99.90;;;;;;5059567;28;20450;-68
2022/12/24 05:41:58;;;;;;;10.77;1.92;;;12.50;99.90;;;;;;5059637;28;20033;-68
2022/12/24 05:44:24;;;;;;;12.35;2.20;;;12.50;99.90;;;;;;5059001;28;20089;-68
2022/12/24 05:46:49;;;;;;;4.25;1.45;;;12.50;99.90;;;;;;5059271;28;20028;-68
2022/12/24 05:49:15;;;;;;;8.98;1.70;;;12.50;99.90;;;;;;5059205;28;20052;-68
2022/12/24 05:51:40;;;;;;;7.03;1.88;;;12.50;99.90;;;;;;5059243;28;20043;-68
2022/12/24 05:54:06;;;;;;;6.25;1.45;;;12.40;99.90;;;;;;5041337;28;20503;-68
2022/12/24 05:56:32;;;;;;;7.63;1.88;;;12.50;99.90;;;;;;5059521;28;20025;-68
2022/12/24 05:58:58;;;;;;;8.38;1.65;;;12.40;99.90;;;;;;5059245;28;20021;-68
2022/12/24 06:01:24;;;;;;;12.25;2.08;;;12.50;99.90;;;;;;5040904;28;20025;-69
2022/12/24 06:03:51;;;;;;;5.38;1.30;;;12.50;99.90;;;;;;5058653;28;20102;-69
2022/12/24 06:06:20;;;;;;;8.65;1.42;;;12.50;99.90;;;;;;5059203;28;20029;-68
2022/12/24 06:08:47;;;;;;;8.95;1.52;;;12.50;99.90;;;;;;5057047;28;20385;-69
2022/12/24 06:11:16;;;;;;;8.90;2.20;;;12.50;99.90;;;;;;5056631;28;20052;-69
2022/12/24 06:13:42;;;;;;;11.60;1.88;;;12.50;99.90;;;;;;5056802;28;20047;-68
2022/12/24 06:16:13;;;;;;;9.73;1.92;;;12.50;99.90;;;;;;5056815;28;20477;-68
2022/12/24 06:18:39;;;;;;;8.55;1.27;;;12.50;99.90;;;;;;5058059;28;20020;-68
2022/12/24 06:21:06;;;;;;;11.40;2.05;;;12.50;99.90;;;;;;5058826;28;20047;-68
2022/12/24 06:23:35;;;;;;;9.15;1.73;;;12.50;99.90;;;;;;5058865;28;20392;-69
2022/12/24 06:26:01;;;;;;;10.63;1.73;;;12.50;99.90;;;;;;5058513;28;20033;-68
2022/12/24 06:28:33;;;;;;;12.32;1.90;;;12.50;99.90;;;;;;5058289;28;20036;-68
2022/12/24 06:31:00;;;;;;;9.65;2.20;;;12.50;99.90;;;;;;5058148;28;20032;-68
2022/12/24 06:33:26;;;;;;;12.10;1.85;;;12.50;99.90;;;;;;5057263;28;20113;-68
2022/12/24 06:35:52;;;;;;;8.38;1.70;;;12.40;99.90;;;;;;5045252;28;20063;-68
2022/12/24 06:38:17;;;;;;;9.32;1.90;;;12.40;99.90;;;;;;5043787;28;20021;-68
2022/12/24 06:40:44;;;;;;;10.90;2.13;;;12.40;99.90;;;;;;5040422;28;20029;-68
2022/12/24 06:43:11;;;;;;;15.65;2.17;;;12.40;99.90;;;;;;5057330;28;20044;-68
2022/12/24 06:45:36;;;;;;;10.88;1.92;;;12.40;99.90;;;;;;5058351;28;20410;-68
2022/12/24 06:48:02;;;;;;;8.32;1.70;;;12.40;99.90;;;;;;5039636;28;20115;-68
2022/12/24 06:50:28;;;;;;;10.63;1.38;;;12.40;99.90;;;;;;5058240;28;20107;-68
2022/12/24 06:52:54;;;;;;;7.80;1.52;;;12.40;99.90;;;;;;5040155;28;20516;-68
2022/12/24 06:55:19;;;;;;;12.85;2.35;;;12.40;99.90;;;;;;5058083;28;20417;-68
2022/12/24 06:57:45;;;;;;;13.82;1.80;;;12.40;99.90;;;;;;5058026;28;20044;-68
2022/12/24 07:00:11;;;;;;;13.45;2.15;;;12.30;99.90;;;;;;5058206;28;20363;-68
2022/12/24 07:02:41;;;;;;;9.18;1.50;;;12.40;99.90;;;;;;5057660;28;20075;-68
2022/12/24 07:05:09;;;;;;;9.50;1.60;;;12.40;99.90;;;;;;5057905;28;20362;-68
2022/12/24 07:07:36;;;;;;;6.18;1.45;;;12.40;99.90;;;;;;5057867;28;20036;-68
2022/12/24 07:10:02;;;;;;;7.15;1.35;;;12.40;99.90;;;;;;5057772;28;20143;-68
2022/12/24 07:12:28;;;;;;;8.65;2.00;;;12.40;99.90;;;;;;5057726;28;20017;-68
2022/12/24 07:14:53;;;;;;;9.20;2.40;;;12.40;99.90;;;;;;5057802;28;20375;-68
2022/12/24 07:17:19;;;;;;;8.63;1.45;;;12.40;99.90;;;;;;5057636;28;20384;-68
2022/12/24 07:19:45;;;;;;;9.15;1.50;;;12.40;99.90;;;;;;5057706;28;20025;-68
2022/12/24 07:22:10;;;;;;;5.63;1.48;;;12.40;99.90;;;;;;5057578;28;20488;-68
2022/12/24 07:24:36;;;;;;;12.18;1.80;;;12.40;99.90;;;;;;5057840;28;20039;-68
2022/12/24 07:27:02;;;;;;;11.23;2.25;;;12.40;99.90;;;;;;5057475;28;20025;-68
2022/12/24 07:29:27;;;;;;;8.82;1.73;;;12.40;99.90;;;;;;5039923;28;20059;-68
2022/12/24 07:31:53;;;;;;;9.65;1.95;;;12.40;99.90;;;;;;5057354;28;20032;-68
2022/12/24 07:34:18;;;;;;;4.90;1.20;;;12.40;99.90;;;;;;5057228;28;20104;-68
2022/12/24 07:36:44;;;;;;;8.65;2.10;;;12.40;99.90;;;;;;5057301;28;20114;-68
2022/12/24 07:39:10;;;;;;;7.03;1.50;;;12.40;99.90;;;;;;5057749;28;20045;-68
2022/12/24 07:41:35;;;;;;;7.97;1.40;;;12.40;99.90;;;;;;5057309;28;20028;-68
2022/12/24 07:44:01;;;;;;;8.93;1.95;;;12.40;99.90;;;;;;5057423;28;20082;-68
2022/12/24 07:46:26;;;;;;;10.65;1.80;;;12.50;99.90;;;;;;5057184;28;20029;-68
2022/12/24 07:48:52;;;;;;;8.63;1.30;;;12.50;99.90;;;;;;5057160;28;20055;-68
2022/12/24 07:51:18;;;;;;;5.18;1.20;;;12.40;99.90;;;;;;5039222;28;20056;-68
2022/12/24 07:53:46;;;;;;;8.65;1.85;;;12.50;99.90;;;;;;5057311;28;20083;-68
2022/12/24 07:56:13;;;;;;;8.25;1.40;;;12.50;99.90;;;;;;5039178;28;20075;-68
2022/12/24 07:58:40;;;;;;;10.80;1.73;;;12.50;99.90;;;;;;5057161;28;20064;-68
2022/12/24 08:01:05;;;;;;;10.18;1.90;;;12.50;99.90;;;;;;5056990;28;20017;-68
2022/12/24 08:03:31;;;;;;;8.82;1.40;;;12.40;99.90;;;;;;5038961;28;20106;-68
2022/12/24 08:05:57;;;;;;;7.78;1.67;;;12.40;99.90;;;;;;5057057;28;20370;-68
2022/12/24 08:08:23;;;;;;;6.78;1.40;;;12.50;99.90;;;;;;5057194;28;20040;-68
2022/12/24 08:10:48;;;;;;;6.15;1.25;;;12.40;99.90;;;;;;5056820;28;20037;-68
2022/12/24 08:13:14;;;;;;;7.38;1.50;;;12.40;99.90;;;;;;5039244;28;20025;-68
2022/12/24 08:15:40;;;;;;;4.85;1.10;;;12.50;99.90;;;;;;5056876;28;20508;-68
2022/12/24 08:18:06;;;;;;;7.63;1.70;;;12.50;99.90;;;;;;5056710;28;20428;-68
2022/12/24 08:20:31;;;;;;;4.18;1.23;;;12.50;99.90;;;;;;5057018;28;20021;-68
2022/12/24 08:22:57;;;;;;;4.45;0.90;;;12.50;99.90;;;;;;5057016;28;20385;-68
2022/12/24 08:25:22;;;;;;;8.07;1.40;;;12.50;99.90;;;;;;5056946;28;20482;-68
2022/12/24 08:27:48;;;;;;;4.55;1.00;;;12.50;99.90;;;;;;5039087;28;20178;-68
2022/12/24 08:30:14;;;;;;;6.88;1.48;;;12.50;99.90;;;;;;5056785;28;20055;-68
2022/12/24 08:32:40;;;;;;;6.95;1.48;;;12.50;99.90;;;;;;5038915;28;20063;-68
2022/12/24 08:35:06;;;;;;;7.63;1.40;;;12.50;99.90;;;;;;5056308;28;20025;-68
2022/12/24 08:37:32;;;;;;;5.90;1.38;;;12.50;99.90;;;;;;5056690;28;20091;-68
2022/12/24 08:39:57;;;;;;;7.60;1.52;;;12.50;99.90;;;;;;5038640;28;20032;-68
2022/12/24 08:42:23;;;;;;;5.13;1.25;;;12.50;99.90;;;;;;5056771;28;20025;-68
2022/12/24 08:44:48;;;;;;;4.70;1.15;;;12.50;99.90;;;;;;5056275;28;20032;-68
2022/12/24 08:47:14;;;;;;;6.00;1.40;;;12.60;99.90;;;;;;5056650;28;20036;-69
2022/12/24 08:49:40;;;;;;;7.45;1.63;;;12.60;99.90;;;;;;5056424;28;20075;-68
2022/12/24 08:52:05;;;;;;;5.65;1.30;;;12.60;99.90;;;;;;5056834;28;20032;-68
2022/12/24 08:54:31;;;;;;;5.28;1.40;;;12.60;99.90;;;;;;5038557;28;20032;-68
2022/12/24 08:56:57;;;;;;;9.25;1.75;;;12.50;99.90;;;;;;5038747;28;20025;-68
2022/12/24 08:59:22;;;;;;;6.45;1.33;;;12.60;99.90;;;;;;5056453;28;20017;-68
2022/12/24 09:01:48;;;;;;;6.28;1.48;;;12.60;99.90;;;;;;5038229;28;20025;-68
2022/12/24 09:04:14;;;;;;;8.48;1.73;;;12.60;99.90;;;;;;5056335;28;20397;-68
2022/12/24 09:06:39;;;;;;;6.25;1.95;;;12.60;99.90;;;;;;5042207;28;20029;-68
2022/12/24 09:09:05;;;;;;;7.28;1.75;;;12.60;99.90;;;;;;5060081;28;20024;-68
2022/12/24 09:11:33;;;;;;;8.18;1.50;;;12.60;99.90;;;;;;5059972;28;20045;-68
2022/12/24 09:13:59;;;;;;;6.22;2.30;;;12.60;99.90;;;;;;5059821;28;20021;-68
2022/12/24 09:16:25;;;;;;;6.07;2.00;;;12.60;99.90;;;;;;5042000;28;20035;-68
2022/12/24 09:18:50;;;;;;;6.75;1.45;;;12.60;99.90;;;;;;5041759;28;20028;-68
2022/12/24 09:21:17;;;;;;;6.00;1.65;;;12.60;99.90;;;;;;5060031;28;20031;-68
2022/12/24 09:23:46;;;;;;;6.50;1.30;;;12.60;99.90;;;;;;5041724;28;20481;-68
2022/12/24 09:26:21;;;;;;;5.13;1.30;;;12.70;99.90;;;;;;5059697;28;20729;-68
2022/12/24 09:28:47;;;;;;;5.88;1.23;;;12.60;99.90;;;;;;5059831;28;20025;-68
2022/12/24 09:31:13;;;;;;;5.35;1.58;;;12.60;99.90;;;;;;5059629;28;20044;-68
2022/12/24 09:33:40;;;;;;;10.10;1.20;;;12.70;99.90;;;;;;5059200;28;20530;-68
2022/12/24 09:36:06;;;;;;;4.25;1.15;;;12.70;99.90;;;;;;5059729;28;20021;-68
2022/12/24 09:38:32;;;;;;;5.88;1.30;;;12.70;99.90;;;;;;5059441;28;20477;-68
2022/12/24 09:40:59;;;;;;;4.10;1.35;;;12.70;99.90;;;;;;5059373;28;20017;-68
2022/12/24 09:43:29;;;;;;;9.40;1.65;;;12.70;99.90;;;;;;5041432;28;20031;-69
2022/12/24 09:46:03;;;;;;;4.38;1.30;;;12.70;99.90;;;;;;5041389;28;20021;-68
2022/12/24 09:48:31;;;;;;;5.32;1.35;;;12.70;99.90;;;;;;5059247;28;20025;-68
2022/12/24 09:51:24;;;;;;;11.50;1.98;;;12.70;99.90;;;;;;5059273;28;20013;-68
2022/12/24 09:54:14;;;;;;;7.57;1.33;;;12.70;99.90;;;;;;5045041;28;20044;-68
2022/12/24 09:56:43;;;;;;;9.05;1.73;;;12.70;99.90;;;;;;5059358;28;20541;-68
2022/12/24 09:59:32;;;;;;;6.28;1.85;;;12.70;99.90;;;;;;5041279;28;20447;-68
2022/12/24 10:01:59;;;;;;;9.60;1.60;;;12.70;99.90;;;;;;5059107;28;20059;-68
2022/12/24 10:04:30;;;;;;;17.13;4.05;;;12.70;99.90;;;;;;5058668;28;20102;-68
2022/12/24 10:07:16;;;;;;;9.95;2.13;;;12.80;99.90;;;;;;5059066;28;20021;-68
2022/12/24 10:10:10;;;;;;;11.20;2.25;;;12.80;99.90;;;;;;5040959;28;20033;-68
2022/12/24 10:13:01;;;;;;;8.93;1.60;;;12.80;99.90;;;;;;5021253;28;20417;-68
2022/12/24 10:15:38;;;;;;;8.13;1.90;;;12.80;99.90;;;;;;5058934;28;20033;-68
2022/12/24 10:18:41;;;;;;;12.07;2.05;;;12.80;99.90;;;;;;5057776;28;20055;-68
2022/12/24 10:21:23;;;;;;;7.75;1.85;;;12.70;99.90;;;;;;5059151;28;20096;-68
2022/12/24 10:24:05;;;;;;;8.70;1.40;;;12.80;99.90;;;;;;5058670;28;20056;-67
2022/12/24 10:26:44;;;;;;;8.55;1.15;;;12.80;99.90;;;;;;5058805;28;20032;-68
2022/12/24 10:29:15;;;;;;;5.95;1.55;;;12.80;99.90;;;;;;5058702;28;20029;-67
2022/12/24 10:32:01;;;;;;;6.45;1.55;;;12.80;99.90;;;;;;5040519;28;20064;-67
2022/12/24 10:34:35;;;;;;;8.20;1.48;;;12.90;99.90;;;;;;5058390;28;20056;-67
2022/12/24 10:37:03;;;;;;;7.50;1.83;;;12.90;99.90;;;;;;5048846;28;20627;-67
2022/12/24 10:39:29;;;;;;;6.78;1.30;;;12.90;99.90;;;;;;5058551;28;20024;-67
2022/12/24 10:41:57;;;;;;;5.32;1.25;;;12.90;99.90;;;;;;5040311;28;20017;-67
2022/12/24 10:44:29;;;;;;;7.82;1.77;;;12.90;99.90;;;;;;5040447;28;20032;-67
2022/12/24 10:46:54;;;;;;;5.90;1.67;;;13.00;99.90;;;;;;5058299;28;20104;-67
2022/12/24 10:49:51;;;;;;;6.03;1.20;;;13.00;99.90;;;;;;5057952;28;20052;-68
2022/12/24 10:52:23;;;;;;;5.85;1.33;;;13.00;99.90;;;;;;5058428;28;20033;-68
2022/12/24 10:55:12;;;;;;;5.88;1.30;;;13.00;99.90;;;;;;5057998;28;20343;-68
2022/12/24 10:57:39;;;;;;;6.50;1.40;;;13.00;99.90;;;;;;5047492;28;20033;-67
2022/12/24 11:00:07;;;;;;;8.82;1.58;;;13.00;99.90;;;;;;5040061;28;20393;-68
2022/12/24 11:02:35;;;;;;;7.00;1.65;;;13.00;99.90;;;;;;5057743;28;20023;-68
2022/12/24 11:05:05;;;;;;;7.28;1.33;;;13.00;99.90;;;;;;5057993;28;20029;-67
2022/12/24 11:07:31;;;;;;;9.77;2.10;;;13.00;99.90;;;;;;5057806;28;20032;-67
2022/12/24 11:10:01;;;;;;;7.38;1.60;;;13.00;99.90;;;;;;5057874;28;20413;-68
2022/12/24 11:12:45;;;;;;;10.75;1.67;;;12.90;99.90;;;;;;5057844;28;20029;-68
2022/12/24 11:15:25;;;;;;;7.28;1.50;;;13.00;99.90;;;;;;5057634;28;20548;-69
2022/12/24 11:18:04;;;;;;;7.93;1.52;;;13.00;99.90;;;;;;5057488;28;20047;-69
2022/12/24 11:20:32;;;;;;;8.77;1.35;;;13.00;99.90;;;;;;5057755;28;20393;-69
2022/12/24 11:22:58;;;;;;;6.85;1.35;;;13.10;99.90;;;;;;5057765;28;20028;-69
2022/12/24 11:25:28;;;;;;;5.65;1.33;;;13.00;99.90;;;;;;5057509;28;20576;-69
2022/12/24 11:27:54;;;;;;;5.47;1.33;;;13.00;99.90;;;;;;5057226;28;20020;-69
2022/12/24 11:30:30;;;;;;;7.38;1.58;;;13.00;99.90;;;;;;5057471;28;20467;-69
2022/12/24 11:33:02;;;;;;;7.05;1.40;;;13.10;99.90;;;;;;5056985;28;20021;-69
2022/12/24 11:35:30;;;;;;;5.05;1.38;;;13.00;99.90;;;;;;5057117;28;20394;-69
2022/12/24 11:38:04;;;;;;;8.85;1.30;;;13.00;99.90;;;;;;5057373;28;20036;-69
2022/12/24 11:40:42;;;;;;;4.55;1.17;;;13.00;99.90;;;;;;5039530;28;20036;-69
2022/12/24 11:43:18;;;;;;;3.88;1.27;;;13.00;99.90;;;;;;5039436;28;20025;-69
2022/12/24 11:45:55;;;;;;;5.97;1.60;;;13.00;99.90;;;;;;5057555;28;20499;-69
2022/12/24 11:48:33;;;;;;;3.70;0.95;;;13.00;99.90;;;;;;5056897;28;20545;-69
2022/12/24 11:51:01;;;;;;;5.72;1.45;;;13.00;99.90;;;;;;5057381;28;20086;-69
2022/12/24 11:53:55;;;;;;;6.18;0.95;;;13.10;99.90;;;;;;5039182;28;20025;-69
2022/12/24 11:56:31;;;;;;;4.55;0.90;;;13.10;99.90;;;;;;5016263;28;20132;-69
2022/12/24 11:59:06;;;;;;;5.95;1.20;;;13.10;99.90;;;;;;5057161;28;20024;-69
2022/12/24 12:01:47;;;;;;;4.07;0.90;;;13.10;99.90;;;;;;5057085;28;20052;-69
2022/12/24 12:04:23;;;;;;;3.25;0.80;;;13.00;99.90;;;;;;5039001;28;20033;-69
2022/12/24 12:06:59;;;;;;;4.68;1.00;;;13.10;99.90;;;;;;5039283;28;20488;-69
2022/12/24 12:09:32;;;;;;;5.28;0.90;;;13.10;99.90;;;;;;5039100;28;20029;-69
2022/12/24 12:12:00;;;;;;;;;;;13.10;99.90;;;;;;5057277;28;20104;-69
2022/12/24 12:14:34;;;;;;;3.63;1.00;;;13.10;99.90;;;;;;5057288;28;19959;-69
2022/12/24 12:17:11;;;;;;;;;;;13.20;99.90;;;;;;5057553;28;20381;-69
2022/12/24 12:19:45;;;;;;;4.15;0.85;;;13.20;99.90;;;;;;5056563;28;19967;-69
2022/12/24 12:22:28;;;;;;;3.42;1.00;;;13.10;99.90;;;;;;5056882;28;20512;-69
2022/12/24 12:24:56;;;;;;;3.60;1.20;;;13.10;99.90;;;;;;5057172;28;20116;-69
2022/12/24 12:27:27;;;;;;;5.72;1.15;;;13.20;99.90;;;;;;5056992;28;20052;-69
2022/12/24 12:30:03;;;;;;;4.47;1.08;;;13.30;99.90;;;;;;5057000;28;20385;-69
2022/12/24 12:32:47;;;;;;;6.07;1.20;;;13.30;99.90;;;;;;5038734;28;20551;-69
2022/12/24 12:35:36;;;;;;;6.43;1.33;;;13.30;99.90;;;;;;5056678;28;20031;-69
2022/12/24 12:38:17;;;;;;;5.00;1.02;;;13.30;99.90;;;;;;5033579;28;20071;-69
2022/12/24 12:41:08;;;;;;;4.68;1.38;;;13.30;99.90;;;;;;5041140;28;20024;-70
2022/12/24 12:43:46;;;;;;;5.55;1.33;;;13.30;99.90;;;;;;5060685;28;20025;-70
2022/12/24 12:46:17;;;;;;;5.18;1.15;;;13.30;99.90;;;;;;5060712;28;20024;-68
2022/12/24 12:49:22;;;;;;;3.90;1.10;;;13.30;99.90;;;;;;5060703;28;20021;-69
2022/12/24 12:52:03;;;;;;;3.53;0.85;;;13.30;99.90;;;;;;5029674;28;20132;-68
2022/12/24 12:54:50;;;;;;;4.78;1.20;;;13.30;99.90;;;;;;5060258;28;20021;-69
2022/12/24 12:57:20;;;;;;;5.35;1.30;;;13.40;99.90;;;;;;5060618;28;20103;-69
2022/12/24 12:59:55;;;;;;;6.15;1.17;;;13.40;99.90;;;;;;5060615;28;20024;-69
2022/12/24 13:02:28;;;;;;;6.13;1.20;;;13.40;99.90;;;;;;5059776;28;20562;-69
2022/12/24 13:04:56;;;;;;;4.70;1.08;;;13.40;99.90;;;;;;5060227;28;20025;-69
2022/12/24 13:07:37;;;;;;;4.93;0.90;;;13.40;99.90;;;;;;5060190;28;20156;-69
2022/12/24 13:10:09;;;;;;;5.18;1.00;;;13.40;99.90;;;;;;5060047;28;20448;-69